Time;durP1;ratioP1;P1;durP2;ratioP2;P2;SDS_P1;SDS_P2;PMS_P1;PMS_P2;Temp;Humidity;BMP_temperature;BMP_pressure;BME280_temperature;BME280_humidity;BME280_pressure;Samples;Min_cycle;Max_cycle;Signal;HPM_P1;HPM_P2
2024/01/26 00:01:32;;;;;;;0.00;0.00;;;13.80;79.60;;;;;;5042783;28;20200;-42
2024/01/26 00:03:59;;;;;;;0.00;0.00;;;13.80;79.60;;;;;;5044042;28;20196;-41
2024/01/26 00:06:29;;;;;;;0.00;0.00;;;13.80;79.60;;;;;;5030072;28;20446;-41
2024/01/26 00:09:09;;;;;;;0.00;0.00;;;13.80;79.60;;;;;;5031688;28;20201;-41
2024/01/26 00:11:36;;;;;;;0.00;0.00;;;13.80;79.50;;;;;;5032063;28;20219;-40
2024/01/26 00:14:07;;;;;;;0.00;0.00;;;13.80;79.60;;;;;;5033881;28;20262;-40
2024/01/26 00:16:40;;;;;;;0.00;0.00;;;13.80;79.60;;;;;;5031286;28;20663;-42
2024/01/26 00:19:10;;;;;;;0.00;0.00;;;13.80;79.50;;;;;;5032451;28;20304;-41
2024/01/26 00:21:38;;;;;;;0.00;0.00;;;13.80;79.50;;;;;;5036738;28;20266;-41
2024/01/26 00:24:05;;;;;;;0.00;0.00;;;13.80;79.50;;;;;;5032193;28;20300;-41
2024/01/26 00:26:33;;;;;;;0.00;0.00;;;13.80;79.50;;;;;;5029476;28;20239;-41
2024/01/26 00:29:00;;;;;;;0.00;0.00;;;13.80;79.60;;;;;;5021777;28;20330;-42
2024/01/26 00:31:30;;;;;;;0.00;0.00;;;13.80;79.60;;;;;;5023555;28;20227;-41
2024/01/26 00:34:02;;;;;;;0.00;0.00;;;13.80;79.60;;;;;;5031367;28;20290;-41
2024/01/26 00:36:32;;;;;;;0.00;0.00;;;13.80;79.60;;;;;;5029177;28;20236;-41
2024/01/26 00:38:59;;;;;;;0.00;0.00;;;13.80;79.60;;;;;;5027068;28;20278;-42
2024/01/26 00:41:36;;;;;;;0.00;0.00;;;13.80;79.60;;;;;;5029441;28;20493;-39
2024/01/26 00:44:03;;;;;;;0.00;0.00;;;13.80;79.60;;;;;;5034869;28;20215;-39
2024/01/26 00:46:30;;;;;;;0.00;0.00;;;13.90;79.70;;;;;;5030567;28;20213;-39
2024/01/26 00:49:02;;;;;;;0.00;0.00;;;13.90;79.70;;;;;;5031613;28;20978;-38
2024/01/26 00:51:30;;;;;;;0.00;0.00;;;13.80;79.50;;;;;;5031542;28;20205;-39
2024/01/26 00:53:57;;;;;;;0.00;0.00;;;13.80;79.50;;;;;;5040053;28;20219;-39
2024/01/26 00:56:24;;;;;;;0.00;0.00;;;13.80;79.40;;;;;;5029254;28;20296;-39
2024/01/26 00:58:52;;;;;;;0.00;0.00;;;13.80;79.50;;;;;;5029940;28;20645;-39
2024/01/26 01:01:23;;;;;;;0.00;0.00;;;13.80;79.50;;;;;;5029331;28;20231;-39
2024/01/26 01:03:50;;;;;;;0.00;0.00;;;13.80;79.60;;;;;;5027719;28;20229;-39
2024/01/26 01:06:18;;;;;;;0.00;0.00;;;13.80;79.60;;;;;;5020609;28;20678;-39
2024/01/26 01:08:47;;;;;;;0.00;0.00;;;13.80;79.60;;;;;;5033078;28;20215;-40
2024/01/26 01:11:20;;;;;;;0.00;0.00;;;13.80;79.70;;;;;;5018937;28;20932;-39
2024/01/26 01:13:47;;;;;;;0.00;0.00;;;13.80;79.70;;;;;;5042720;28;20212;-39
2024/01/26 01:16:18;;;;;;;0.00;0.00;;;13.80;79.60;;;;;;5031030;28;20213;-39
2024/01/26 01:18:48;;;;;;;0.00;0.00;;;13.80;79.70;;;;;;5035779;28;20211;-39
2024/01/26 01:21:18;;;;;;;0.00;0.00;;;13.80;79.70;;;;;;5040811;28;20287;-39
2024/01/26 01:23:49;;;;;;;0.00;0.00;;;13.80;79.70;;;;;;5038930;28;20223;-38
2024/01/26 01:26:18;;;;;;;0.00;0.00;;;13.80;79.60;;;;;;5031728;28;20288;-39
2024/01/26 01:28:52;;;;;;;0.00;0.00;;;13.80;79.60;;;;;;5034331;28;20224;-39
2024/01/26 01:31:21;;;;;;;0.00;0.00;;;13.80;79.60;;;;;;5018964;28;20208;-39
2024/01/26 01:33:51;;;;;;;0.00;0.00;;;13.80;79.60;;;;;;5029927;28;20235;-37
2024/01/26 01:36:21;;;;;;;0.00;0.00;;;13.80;79.60;;;;;;5038123;28;20234;-39
2024/01/26 01:38:48;;;;;;;0.00;0.00;;;13.80;79.60;;;;;;5029941;28;20208;-39
2024/01/26 01:41:20;;;;;;;0.00;0.00;;;13.80;79.50;;;;;;5027775;28;20201;-39
2024/01/26 01:43:58;;;;;;;0.00;0.00;;;13.80;79.50;;;;;;5017474;28;20209;-38
2024/01/26 01:46:26;;;;;;;0.00;0.00;;;13.70;79.50;;;;;;5031176;28;20204;-38
2024/01/26 01:48:53;;;;;;;0.00;0.00;;;13.70;79.50;;;;;;5030578;28;20213;-39
2024/01/26 01:51:21;;;;;;;0.00;0.00;;;13.70;79.50;;;;;;5031958;28;20208;-38
2024/01/26 01:53:49;;;;;;;0.00;0.00;;;13.70;79.50;;;;;;5037446;28;20290;-37
2024/01/26 01:56:23;;;;;;;0.00;0.00;;;13.70;79.60;;;;;;5029750;28;20208;-38
2024/01/26 01:58:51;;;;;;;0.00;0.00;;;13.70;79.60;;;;;;5028566;28;20223;-38
2024/01/26 02:01:21;;;;;;;0.00;0.00;;;13.70;79.60;;;;;;5030245;28;20962;-39
2024/01/26 02:03:48;;;;;;;0.00;0.00;;;13.70;79.60;;;;;;5035930;28;20573;-40
2024/01/26 02:06:16;;;;;;;0.00;0.00;;;13.70;79.70;;;;;;5028617;28;20213;-39
2024/01/26 02:08:46;;;;;;;0.00;0.00;;;13.70;79.70;;;;;;5031161;28;20666;-39
2024/01/26 02:11:13;;;;;;;0.00;0.00;;;13.70;79.70;;;;;;5029602;28;20223;-39
2024/01/26 02:13:45;;;;;;;0.00;0.00;;;13.70;79.70;;;;;;5041433;28;20219;-39
2024/01/26 02:16:16;;;;;;;0.00;0.00;;;13.70;79.70;;;;;;5034215;28;20278;-40
2024/01/26 02:18:46;;;;;;;0.00;0.00;;;13.70;79.70;;;;;;5032456;28;20206;-39
2024/01/26 02:21:16;;;;;;;0.00;0.00;;;13.70;79.70;;;;;;5031635;28;20262;-40
2024/01/26 02:23:45;;;;;;;0.00;0.00;;;13.70;79.60;;;;;;5036452;28;20682;-39
2024/01/26 02:26:12;;;;;;;0.00;0.00;;;13.70;79.70;;;;;;5028979;28;20695;-40
2024/01/26 02:28:40;;;;;;;0.00;0.00;;;13.70;79.60;;;;;;5031105;28;20208;-40
2024/01/26 02:31:09;;;;;;;0.00;0.00;;;13.70;79.70;;;;;;5033489;28;20235;-40
2024/01/26 02:33:36;;;;;;;0.00;0.00;;;13.70;79.70;;;;;;5025182;28;20221;-39
2024/01/26 02:36:07;;;;;;;0.00;0.00;;;13.70;79.60;;;;;;5029159;28;20381;-39
2024/01/26 02:38:34;;;;;;;0.00;0.00;;;13.70;79.60;;;;;;5034227;28;20212;-39
2024/01/26 02:41:01;;;;;;;0.00;0.00;;;13.70;79.60;;;;;;5028270;28;20198;-40
2024/01/26 02:43:33;;;;;;;0.00;0.00;;;13.70;79.60;;;;;;5033287;28;20231;-38
2024/01/26 02:46:00;;;;;;;0.00;0.00;;;13.70;79.60;;;;;;5033872;28;20952;-39
2024/01/26 02:48:30;;;;;;;0.00;0.00;;;13.70;79.60;;;;;;5043323;28;20228;-39
2024/01/26 02:50:59;;;;;;;0.00;0.00;;;13.70;79.60;;;;;;5040963;28;20706;-38
2024/01/26 02:53:31;;;;;;;0.00;0.00;;;13.60;79.60;;;;;;5030186;28;20227;-40
2024/01/26 02:55:59;;;;;;;0.00;0.00;;;13.60;79.60;;;;;;5040120;28;20623;-38
2024/01/26 02:58:28;;;;;;;0.00;0.00;;;13.60;80.30;;;;;;5043227;28;20212;-39
2024/01/26 03:00:58;;;;;;;0.00;0.00;;;13.60;79.60;;;;;;5033374;28;20200;-39
2024/01/26 03:03:28;;;;;;;0.00;0.00;;;13.60;79.60;;;;;;5010104;28;20204;-40
2024/01/26 03:05:55;;;;;;;0.00;0.00;;;13.60;79.60;;;;;;5047311;28;20213;-38
2024/01/26 03:08:27;;;;;;;0.00;0.00;;;13.60;79.50;;;;;;5033483;28;20634;-38
2024/01/26 03:10:54;;;;;;;0.00;0.00;;;13.60;79.40;;;;;;5035727;28;20693;-39
2024/01/26 03:13:24;;;;;;;0.00;0.00;;;13.50;79.40;;;;;;5030300;28;20400;-39
2024/01/26 03:15:53;;;;;;;0.00;0.00;;;13.50;79.40;;;;;;5034935;28;20217;-40
2024/01/26 03:18:21;;;;;;;0.00;0.00;;;13.50;79.40;;;;;;5027552;28;20193;-39
2024/01/26 03:20:48;;;;;;;0.00;0.00;;;13.40;79.30;;;;;;5034600;28;20274;-39
2024/01/26 03:23:18;;;;;;;0.00;0.00;;;13.40;79.30;;;;;;5035028;28;20265;-39
2024/01/26 03:25:45;;;;;;;0.00;0.00;;;13.40;79.40;;;;;;5036855;28;20231;-40
2024/01/26 03:28:12;;;;;;;0.00;0.00;;;13.40;79.30;;;;;;5039360;28;20206;-40
2024/01/26 03:30:46;;;;;;;0.00;0.00;;;13.40;79.40;;;;;;5041785;28;20270;-38
2024/01/26 03:33:17;;;;;;;0.00;0.00;;;13.30;79.30;;;;;;5024921;28;20547;-39
2024/01/26 03:35:49;;;;;;;0.00;0.00;;;13.30;79.30;;;;;;5039801;28;20327;-37
2024/01/26 03:38:16;;;;;;;0.00;0.00;;;13.30;79.40;;;;;;5030600;28;20608;-38
2024/01/26 03:40:43;;;;;;;0.00;0.00;;;13.30;79.50;;;;;;5037579;28;20197;-39
2024/01/26 03:43:10;;;;;;;0.00;0.00;;;13.30;79.50;;;;;;5036992;28;20221;-40
2024/01/26 03:45:42;;;;;;;0.00;0.00;;;13.30;79.40;;;;;;5031289;28;20225;-40
2024/01/26 03:48:12;;;;;;;0.00;0.00;;;13.30;79.50;;;;;;5044643;28;20204;-39
2024/01/26 03:50:44;;;;;;;0.00;0.00;;;13.30;79.50;;;;;;5037401;28;20737;-40
2024/01/26 03:53:11;;;;;;;0.00;0.00;;;13.30;79.50;;;;;;5033259;28;20228;-39
2024/01/26 03:55:41;;;;;;;0.00;0.00;;;13.30;79.50;;;;;;5027549;28;20203;-38
2024/01/26 03:58:12;;;;;;;0.00;0.00;;;13.30;79.50;;;;;;5039653;28;20214;-40
2024/01/26 04:00:42;;;;;;;0.00;0.00;;;13.30;80.20;;;;;;5030449;28;20209;-39
2024/01/26 04:03:09;;;;;;;0.00;0.00;;;13.30;79.50;;;;;;5029525;28;20655;-39
2024/01/26 04:05:39;;;;;;;0.00;0.00;;;13.30;79.50;;;;;;5044214;28;20220;-39
2024/01/26 04:08:06;;;;;;;0.00;0.00;;;13.30;79.50;;;;;;5023492;28;20680;-38
2024/01/26 04:10:33;;;;;;;0.00;0.00;;;13.30;79.50;;;;;;5031942;28;20205;-38
2024/01/26 04:13:01;;;;;;;0.00;0.00;;;13.30;80.30;;;;;;5029000;28;20201;-39
2024/01/26 04:15:30;;;;;;;0.00;0.00;;;13.30;79.50;;;;;;5040797;28;20216;-39
2024/01/26 04:18:02;;;;;;;0.00;0.00;;;13.30;79.50;;;;;;5044513;28;20314;-38
2024/01/26 04:20:29;;;;;;;0.00;0.00;;;13.30;79.60;;;;;;5023968;28;20201;-38
2024/01/26 04:22:56;;;;;;;0.00;0.00;;;13.30;79.60;;;;;;5038040;28;20274;-38
2024/01/26 04:25:24;;;;;;;0.00;0.00;;;13.30;79.60;;;;;;5025067;28;20208;-38
2024/01/26 04:27:53;;;;;;;0.00;0.00;;;13.30;79.70;;;;;;5034297;28;20256;-38
2024/01/26 04:30:25;;;;;;;0.00;0.00;;;13.30;79.70;;;;;;5037182;28;20999;-38
2024/01/26 04:32:52;;;;;;;0.00;0.00;;;13.30;79.80;;;;;;5027216;28;20208;-38
2024/01/26 04:35:20;;;;;;;0.00;0.00;;;13.30;79.70;;;;;;5040757;28;20228;-38
2024/01/26 04:37:47;;;;;;;0.00;0.00;;;13.40;79.70;;;;;;5036365;28;20248;-38
2024/01/26 04:40:19;;;;;;;0.00;0.00;;;13.40;79.70;;;;;;5039899;28;20192;-39
2024/01/26 04:42:49;;;;;;;0.00;0.00;;;13.40;79.70;;;;;;5031542;28;20228;-38
2024/01/26 04:45:18;;;;;;;0.00;0.00;;;13.40;79.80;;;;;;5035042;28;20295;-36
2024/01/26 04:47:48;;;;;;;0.00;0.00;;;13.40;79.80;;;;;;5031997;28;20577;-39
2024/01/26 04:50:17;;;;;;;0.00;0.00;;;13.40;79.80;;;;;;5031431;28;20197;-39
2024/01/26 04:52:45;;;;;;;0.00;0.00;;;13.50;79.80;;;;;;5024694;28;21844;-39
2024/01/26 04:55:12;;;;;;;0.00;0.00;;;13.50;79.80;;;;;;5025369;28;20217;-39
2024/01/26 04:57:39;;;;;;;0.00;0.00;;;13.50;79.80;;;;;;5028826;28;20691;-39
2024/01/26 05:00:07;;;;;;;0.00;0.00;;;13.40;79.80;;;;;;5026172;28;20205;-40
2024/01/26 05:02:35;;;;;;;0.00;0.00;;;13.50;79.80;;;;;;5038706;28;20717;-36
2024/01/26 05:05:03;;;;;;;0.00;0.00;;;13.50;79.90;;;;;;5038063;28;20281;-39
2024/01/26 05:07:35;;;;;;;0.00;0.00;;;13.50;79.90;;;;;;5033072;28;20281;-37
2024/01/26 05:10:05;;;;;;;0.00;0.00;;;13.50;79.80;;;;;;5027099;28;20219;-38
2024/01/26 05:12:32;;;;;;;0.00;0.00;;;13.50;79.80;;;;;;5032798;28;20208;-38
2024/01/26 05:15:00;;;;;;;0.00;0.00;;;13.50;79.90;;;;;;5031529;28;20220;-37
2024/01/26 05:17:33;;;;;;;0.00;0.00;;;13.50;79.90;;;;;;5026273;28;20282;-39
2024/01/26 05:20:01;;;;;;;0.00;0.00;;;13.60;80.00;;;;;;5040014;28;20204;-40
2024/01/26 05:22:31;;;;;;;0.00;0.00;;;13.60;80.00;;;;;;5028041;28;20200;-40
2024/01/26 05:24:58;;;;;;;0.00;0.00;;;13.60;80.00;;;;;;5036816;28;20207;-39
2024/01/26 05:27:26;;;;;;;0.00;0.00;;;13.60;80.00;;;;;;5031214;28;20217;-38
2024/01/26 05:29:55;;;;;;;0.00;0.00;;;13.60;80.00;;;;;;5031879;28;20224;-39
2024/01/26 05:32:28;;;;;;;0.00;0.00;;;13.60;80.00;;;;;;5034269;28;20703;-39
2024/01/26 05:34:57;;;;;;;0.00;0.00;;;13.60;80.00;;;;;;5036065;28;20758;-40
2024/01/26 05:37:27;;;;;;;0.00;0.00;;;13.70;80.00;;;;;;5032557;28;20208;-39
2024/01/26 05:39:57;;;;;;;0.00;0.00;;;13.70;80.10;;;;;;5030227;28;20678;-40
2024/01/26 05:42:31;;;;;;;0.00;0.00;;;13.70;80.10;;;;;;5036318;28;20208;-41
2024/01/26 05:44:59;;;;;;;0.00;0.00;;;13.70;80.10;;;;;;5035917;28;20897;-39
2024/01/26 05:47:28;;;;;;;0.00;0.00;;;13.70;80.10;;;;;;5033488;28;20204;-40
2024/01/26 05:49:58;;;;;;;0.00;0.00;;;13.70;80.10;;;;;;5033214;28;20207;-39
2024/01/26 05:52:28;;;;;;;0.00;0.00;;;13.70;80.10;;;;;;5029846;28;20214;-40
2024/01/26 05:54:57;;;;;;;0.00;0.00;;;13.70;80.10;;;;;;5032258;28;20234;-40
2024/01/26 05:57:24;;;;;;;0.00;0.00;;;13.70;80.10;;;;;;5015040;28;20211;-41
2024/01/26 05:59:56;;;;;;;0.00;0.00;;;13.70;80.10;;;;;;5028829;28;20231;-41
2024/01/26 06:02:27;;;;;;;0.00;0.00;;;13.70;80.10;;;;;;5025641;28;20601;-40
2024/01/26 06:04:56;;;;;;;0.00;0.00;;;13.70;80.10;;;;;;5030115;28;20687;-40
2024/01/26 06:07:23;;;;;;;0.00;0.00;;;13.70;80.60;;;;;;5031266;28;20197;-38
2024/01/26 06:09:53;;;;;;;0.00;0.00;;;13.70;80.10;;;;;;5025182;28;20718;-38
2024/01/26 06:12:20;;;;;;;0.00;0.00;;;13.70;80.90;;;;;;5026032;28;20227;-39
2024/01/26 06:14:47;;;;;;;0.00;0.00;;;13.70;80.20;;;;;;5011709;28;20224;-39
2024/01/26 06:17:15;;;;;;;0.00;0.00;;;13.70;80.20;;;;;;5022739;28;20312;-40
2024/01/26 06:19:44;;;;;;;0.00;0.00;;;13.70;80.20;;;;;;5036151;28;20319;-39
2024/01/26 06:22:14;;;;;;;0.00;0.00;;;13.70;80.30;;;;;;5037680;28;20211;-38
2024/01/26 06:24:41;;;;;;;0.00;0.00;;;13.70;80.30;;;;;;5041540;28;20212;-39
2024/01/26 06:27:08;;;;;;;0.00;0.00;;;13.70;80.20;;;;;;5041906;28;20211;-38
2024/01/26 06:29:40;;;;;;;0.00;0.00;;;13.70;80.20;;;;;;5034250;28;20220;-39
2024/01/26 06:32:12;;;;;;;0.00;0.00;;;13.70;80.20;;;;;;5041784;28;20209;-40
2024/01/26 06:34:46;;;;;;;0.00;0.00;;;13.70;80.20;;;;;;5028253;28;20402;-40
2024/01/26 06:37:16;;;;;;;0.00;0.00;;;13.70;80.30;;;;;;5038075;28;20605;-39
2024/01/26 06:39:45;;;;;;;0.00;0.00;;;13.70;80.40;;;;;;5037852;28;20216;-40
2024/01/26 06:42:21;;;;;;;0.00;0.00;;;13.70;80.50;;;;;;5034953;28;20200;-39
2024/01/26 06:44:50;;;;;;;0.00;0.00;;;13.70;80.40;;;;;;5026926;28;20290;-39
2024/01/26 06:47:22;;;;;;;0.00;0.00;;;13.70;80.30;;;;;;5035534;28;20710;-39
2024/01/26 06:49:49;;;;;;;0.00;0.00;;;13.70;80.40;;;;;;5037531;28;20506;-38
2024/01/26 06:52:17;;;;;;;0.00;0.00;;;13.70;80.40;;;;;;5033482;28;20720;-39
2024/01/26 06:54:48;;;;;;;0.00;0.00;;;13.70;80.50;;;;;;5034355;28;20248;-38
2024/01/26 06:57:16;;;;;;;0.00;0.00;;;13.70;80.40;;;;;;5030839;28;20189;-38
2024/01/26 06:59:43;;;;;;;0.00;0.00;;;13.80;80.60;;;;;;5037239;28;20242;-38
2024/01/26 07:02:14;;;;;;;0.00;0.00;;;13.80;80.60;;;;;;5038923;28;20553;-39
2024/01/26 07:04:41;;;;;;;0.00;0.00;;;13.80;80.50;;;;;;5036528;28;20294;-40
2024/01/26 07:07:11;;;;;;;0.00;0.00;;;13.80;80.50;;;;;;5046244;28;20250;-38
2024/01/26 07:09:40;;;;;;;0.00;0.00;;;13.80;80.60;;;;;;5024552;28;20209;-39
2024/01/26 07:12:08;;;;;;;0.00;0.00;;;13.80;80.50;;;;;;5030876;28;20215;-37
2024/01/26 07:14:35;;;;;;;0.00;0.00;;;13.80;80.50;;;;;;5030492;28;20247;-38
2024/01/26 07:17:07;;;;;;;0.00;0.00;;;13.80;80.70;;;;;;5029024;28;20197;-39
2024/01/26 07:19:34;;;;;;;0.00;0.00;;;13.80;80.70;;;;;;5031159;28;20225;-40
2024/01/26 07:22:05;;;;;;;0.00;0.00;;;13.80;80.70;;;;;;5033311;28;20305;-40
2024/01/26 07:24:34;;;;;;;0.00;0.00;;;13.80;80.60;;;;;;5036917;28;20197;-41
2024/01/26 07:27:01;;;;;;;0.00;0.00;;;13.90;80.70;;;;;;5035180;28;20196;-38
2024/01/26 07:29:32;;;;;;;0.00;0.00;;;13.90;80.70;;;;;;5035784;28;20276;-39
2024/01/26 07:32:02;;;;;;;0.00;0.00;;;13.90;80.70;;;;;;5034392;28;20204;-40
2024/01/26 07:34:31;;;;;;;0.00;0.00;;;13.90;80.70;;;;;;5026950;28;20271;-39
2024/01/26 07:37:01;;;;;;;0.00;0.00;;;13.90;80.70;;;;;;5029224;28;20765;-41
2024/01/26 07:39:30;;;;;;;0.00;0.00;;;13.90;80.70;;;;;;5031988;28;20215;-40
2024/01/26 07:41:57;;;;;;;0.00;0.00;;;13.90;80.70;;;;;;5028181;28;20204;-40
2024/01/26 07:44:27;;;;;;;0.00;0.00;;;13.90;80.70;;;;;;5039873;28;20216;-40
2024/01/26 07:46:54;;;;;;;0.00;0.00;;;13.90;80.70;;;;;;5040413;28;20971;-40
2024/01/26 07:49:26;;;;;;;0.00;0.00;;;14.00;80.80;;;;;;5029736;28;20208;-39
2024/01/26 07:52:02;;;;;;;0.00;0.00;;;14.00;80.80;;;;;;5040285;28;20276;-39
2024/01/26 07:54:33;;;;;;;0.00;0.00;;;14.00;80.80;;;;;;5030653;28;20221;-41
2024/01/26 07:57:01;;;;;;;0.00;0.00;;;14.00;80.80;;;;;;5017917;28;20546;-41
2024/01/26 07:59:30;;;;;;;0.00;0.00;;;14.00;80.80;;;;;;5035487;28;21586;-42
2024/01/26 08:01:58;;;;;;;0.00;0.00;;;14.00;80.90;;;;;;5032006;28;20193;-42
2024/01/26 08:04:25;;;;;;;0.00;0.00;;;14.00;80.90;;;;;;5036647;28;20588;-41
2024/01/26 08:06:53;;;;;;;0.00;0.00;;;14.00;80.90;;;;;;5037641;28;20211;-44
2024/01/26 08:09:26;;;;;;;0.00;0.00;;;14.10;81.00;;;;;;5035426;28;20237;-40
2024/01/26 08:11:55;;;;;;;0.00;0.00;;;14.10;81.10;;;;;;5037268;28;20219;-41
2024/01/26 08:14:23;;;;;;;0.00;0.00;;;14.10;81.00;;;;;;5031960;28;20208;-42
2024/01/26 08:16:50;;;;;;;0.00;0.00;;;14.10;81.00;;;;;;5037249;28;20292;-41
2024/01/26 08:19:21;;;;;;;0.00;0.00;;;14.20;81.20;;;;;;5037934;28;20196;-42
2024/01/26 08:21:51;;;;;;;0.00;0.00;;;14.20;81.20;;;;;;5031441;28;20216;-43
2024/01/26 08:24:21;;;;;;;0.00;0.00;;;14.20;81.10;;;;;;5031533;28;20254;-42
2024/01/26 08:26:51;;;;;;;0.00;0.00;;;14.20;81.10;;;;;;5032002;28;20197;-41
2024/01/26 08:29:24;;;;;;;0.00;0.00;;;14.20;81.20;;;;;;5034628;28;20212;-40
2024/01/26 08:31:56;;;;;;;0.00;0.00;;;14.30;81.10;;;;;;5039825;28;20659;-39
2024/01/26 08:34:23;;;;;;;0.00;0.00;;;14.30;81.00;;;;;;5036880;28;20310;-38
2024/01/26 08:36:53;;;;;;;0.00;0.00;;;14.30;81.10;;;;;;5028135;28;20220;-39
2024/01/26 08:39:24;;;;;;;0.00;0.00;;;14.30;81.10;;;;;;5031670;28;20197;-38
2024/01/26 08:41:55;;;;;;;0.00;0.00;;;14.30;81.10;;;;;;5029962;28;20215;-39
2024/01/26 08:44:25;;;;;;;0.00;0.00;;;14.30;81.30;;;;;;5038208;28;20204;-38
2024/01/26 08:46:56;;;;;;;0.00;0.00;;;14.30;81.10;;;;;;5032048;28;20511;-39
2024/01/26 08:49:30;;;;;;;0.00;0.00;;;14.30;81.40;;;;;;5032601;28;20211;-39
2024/01/26 08:51:58;;;;;;;0.00;0.00;;;14.30;81.40;;;;;;5039682;28;20262;-39
2024/01/26 08:54:30;;;;;;;0.00;0.00;;;14.30;81.20;;;;;;5037822;28;20224;-39
2024/01/26 08:57:01;;;;;;;0.00;0.00;;;14.30;81.20;;;;;;5033211;28;20227;-40
2024/01/26 08:59:29;;;;;;;0.00;0.00;;;14.30;81.10;;;;;;5026549;28;20231;-40
2024/01/26 09:01:59;;;;;;;0.00;0.00;;;14.30;81.20;;;;;;5040183;28;20220;-39
2024/01/26 09:04:26;;;;;;;0.00;0.00;;;14.30;81.30;;;;;;5034646;28;20200;-39
2024/01/26 09:06:58;;;;;;;0.00;0.00;;;14.30;81.30;;;;;;5035582;28;20201;-40
2024/01/26 09:09:37;;;;;;;0.00;0.00;;;14.30;81.30;;;;;;5035732;28;20204;-40
2024/01/26 09:12:05;;;;;;;0.00;0.00;;;14.30;81.20;;;;;;5036406;28;20279;-39
2024/01/26 09:14:37;;;;;;;0.00;0.00;;;14.30;81.20;;;;;;5038048;28;20249;-40
2024/01/26 09:17:05;;;;;;;0.00;0.00;;;14.30;81.20;;;;;;5038789;28;20849;-40
2024/01/26 09:19:34;;;;;;;0.00;0.00;;;14.30;81.30;;;;;;5028256;28;20196;-39
2024/01/26 09:22:06;;;;;;;0.00;0.00;;;14.30;81.30;;;;;;5037963;28;20209;-39
2024/01/26 09:24:37;;;;;;;0.00;0.00;;;14.30;81.50;;;;;;5028977;28;20193;-41
2024/01/26 09:27:08;;;;;;;0.00;0.00;;;14.40;81.40;;;;;;5033747;28;20619;-41
2024/01/26 09:29:37;;;;;;;0.00;0.00;;;14.40;81.40;;;;;;5030519;28;20282;-39
2024/01/26 09:32:04;;;;;;;0.00;0.00;;;14.40;81.40;;;;;;5036618;28;20309;-40
2024/01/26 09:34:34;;;;;;;0.00;0.00;;;14.40;81.50;;;;;;5034880;28;20236;-41
2024/01/26 09:37:04;;;;;;;0.00;0.00;;;14.40;81.50;;;;;;5024656;28;20195;-39
2024/01/26 09:39:34;;;;;;;0.00;0.00;;;14.40;81.40;;;;;;5029104;28;20422;-39
2024/01/26 09:42:05;;;;;;;0.00;0.00;;;14.40;81.30;;;;;;5032117;28;20214;-43
2024/01/26 09:44:33;;;;;;;0.00;0.00;;;14.40;81.30;;;;;;5023644;28;20204;-41
2024/01/26 09:47:08;;;;;;;0.00;0.00;;;14.40;81.00;;;;;;5027584;28;20216;-41
2024/01/26 09:49:44;;;;;;;0.00;0.00;;;14.40;80.70;;;;;;5035375;28;20212;-40
2024/01/26 09:52:16;;;;;;;0.00;0.00;;;14.30;80.50;;;;;;5035431;28;20200;-41
2024/01/26 09:54:48;;;;;;;0.00;0.00;;;14.30;80.40;;;;;;5035052;28;20192;-42
2024/01/26 09:57:20;;;;;;;0.00;0.00;;;14.20;80.40;;;;;;5031027;28;20230;-41
2024/01/26 09:59:50;;;;;;;0.00;0.00;;;14.20;80.30;;;;;;5040261;28;20250;-41
2024/01/26 10:02:21;;;;;;;0.00;0.00;;;14.10;80.30;;;;;;5036873;28;20196;-41
2024/01/26 10:04:49;;;;;;;0.00;0.00;;;14.00;80.30;;;;;;5027157;28;20251;-41
2024/01/26 10:07:16;;;;;;;0.00;0.00;;;14.00;80.30;;;;;;5033677;28;20208;-41
2024/01/26 10:09:45;;;;;;;0.00;0.00;;;14.00;80.40;;;;;;5035811;28;20646;-40
2024/01/26 10:12:15;;;;;;;0.00;0.00;;;13.90;80.40;;;;;;5029056;28;20543;-41
2024/01/26 10:14:43;;;;;;;0.00;0.00;;;13.90;80.30;;;;;;5043417;28;20283;-41
2024/01/26 10:17:19;;;;;;;0.00;0.00;;;13.80;80.30;;;;;;5044090;28;20210;-40
2024/01/26 10:19:46;;;;;;;0.00;0.00;;;13.80;80.30;;;;;;5040476;28;20201;-42
2024/01/26 10:22:16;;;;;;;0.00;0.00;;;13.80;79.60;;;;;;5045081;28;20233;-41
2024/01/26 10:24:46;;;;;;;0.00;0.00;;;13.70;79.80;;;;;;5028541;28;20240;-40
2024/01/26 10:27:17;;;;;;;0.00;0.00;;;13.70;79.20;;;;;;5027311;28;20225;-40
2024/01/26 10:29:44;;;;;;;0.00;0.00;;;13.60;79.00;;;;;;5037865;28;20201;-39
2024/01/26 10:32:13;;;;;;;0.00;0.00;;;13.60;79.10;;;;;;5027293;28;20213;-39
2024/01/26 10:34:47;;;;;;;0.00;0.00;;;13.50;78.20;;;;;;5035286;28;20248;-41
2024/01/26 10:37:20;;;;;;;0.00;0.00;;;13.40;77.80;;;;;;5035962;28;20211;-39
2024/01/26 10:39:55;;;;;;;0.00;0.00;;;13.30;78.70;;;;;;5034668;28;20213;-38
2024/01/26 10:42:23;;;;;;;0.00;0.00;;;13.30;78.00;;;;;;5032120;28;20196;-39
2024/01/26 10:44:56;;;;;;;0.00;0.00;;;13.20;78.50;;;;;;5034693;28;20221;-37
2024/01/26 10:47:28;;;;;;;0.00;0.00;;;13.20;78.40;;;;;;5029386;28;20193;-38
2024/01/26 10:50:04;;;;;;;0.00;0.00;;;13.10;78.00;;;;;;5026940;28;20941;-38
2024/01/26 10:52:37;;;;;;;0.00;0.00;;;13.00;75.90;;;;;;5037486;28;20235;-38
2024/01/26 10:55:11;;;;;;;0.00;0.00;;;13.00;76.80;;;;;;5031164;28;20197;-39
2024/01/26 10:57:38;;;;;;;0.00;0.00;;;12.90;77.20;;;;;;5032602;28;20203;-38
2024/01/26 11:00:06;;;;;;;0.00;0.00;;;12.80;77.50;;;;;;5030165;28;20219;-39
2024/01/26 11:02:38;;;;;;;0.00;0.00;;;12.70;76.90;;;;;;5040519;28;20214;-38
2024/01/26 11:05:11;;;;;;;0.00;0.00;;;12.70;76.90;;;;;;5039946;28;20207;-39
2024/01/26 11:07:44;;;;;;;0.00;0.00;;;12.60;76.60;;;;;;5040653;28;20589;-40
2024/01/26 11:10:21;;;;;;;0.00;0.00;;;12.60;76.30;;;;;;5035132;28;20633;-37
2024/01/26 11:13:01;;;;;;;0.00;0.00;;;12.50;75.90;;;;;;5035801;28;20281;-40
2024/01/26 11:15:31;;;;;;;0.00;0.00;;;12.50;76.80;;;;;;5035831;28;20217;-38
2024/01/26 11:18:03;;;;;;;0.00;0.00;;;12.50;77.30;;;;;;5035465;28;20622;-38
2024/01/26 11:20:32;;;;;;;0.00;0.00;;;12.40;76.80;;;;;;5031360;28;20399;-38
2024/01/26 11:23:06;;;;;;;0.00;0.00;;;12.40;75.90;;;;;;5039856;28;20283;-39
2024/01/26 11:25:44;;;;;;;0.00;0.00;;;12.40;75.20;;;;;;5036716;28;20306;-40
2024/01/26 11:28:15;;;;;;;0.00;0.00;;;12.30;76.20;;;;;;5036359;28;20681;-39
2024/01/26 11:30:51;;;;;;;0.00;0.00;;;12.30;73.00;;;;;;5036547;28;20255;-39
2024/01/26 11:33:23;;;;;;;0.00;0.00;;;12.20;75.60;;;;;;5035092;28;20392;-40
2024/01/26 11:36:09;;;;;;;0.00;0.00;;;12.10;75.50;;;;;;5032652;28;20246;-38
2024/01/26 11:38:36;;;;;;;0.00;0.00;;;12.00;73.90;;;;;;5039696;28;20208;-41
2024/01/26 11:41:07;;;;;;;0.00;0.00;;;12.00;74.80;;;;;;5033335;28;20296;-41
2024/01/26 11:43:45;;;;;;;0.00;0.00;;;11.90;75.80;;;;;;5040938;28;20203;-37
2024/01/26 11:46:14;;;;;;;0.00;0.00;;;11.80;75.00;;;;;;5033877;28;20325;-38
2024/01/26 11:48:43;;;;;;;0.00;0.00;;;11.80;74.80;;;;;;5037491;28;21159;-41
2024/01/26 11:51:17;;;;;;;0.00;0.00;;;11.70;74.70;;;;;;5039279;28;20600;-39
2024/01/26 11:53:47;;;;;;;0.00;0.00;;;11.70;74.10;;;;;;5039002;28;20223;-38
2024/01/26 11:56:14;;;;;;;0.00;0.00;;;11.60;74.10;;;;;;5037182;28;20691;-41
2024/01/26 11:58:42;;;;;;;0.00;0.00;;;11.50;75.20;;;;;;5027939;28;20204;-42
2024/01/26 12:01:12;;;;;;;0.00;0.00;;;11.50;73.30;;;;;;5033183;28;20553;-38
2024/01/26 12:03:41;;;;;;;0.00;0.00;;;11.40;72.90;;;;;;5037016;28;20219;-42
2024/01/26 12:06:11;;;;;;;0.00;0.00;;;11.40;72.20;;;;;;5034876;28;20914;-40
2024/01/26 12:08:41;;;;;;;0.00;0.00;;;11.30;74.60;;;;;;5033452;28;20247;-41
2024/01/26 12:11:12;;;;;;;0.00;0.00;;;11.30;72.70;;;;;;5030297;28;20743;-38
2024/01/26 12:13:44;;;;;;;0.00;0.00;;;11.20;74.60;;;;;;5032717;28;20263;-40
2024/01/26 12:16:22;;;;;;;0.00;0.00;;;11.20;74.30;;;;;;5035583;28;20287;-40
2024/01/26 12:18:54;;;;;;;0.00;0.00;;;11.20;73.90;;;;;;5034553;28;20629;-41
2024/01/26 12:21:30;;;;;;;0.00;0.00;;;11.10;73.80;;;;;;5041489;28;20222;-41
2024/01/26 12:24:00;;;;;;;0.00;0.00;;;11.10;74.70;;;;;;5033125;28;20208;-40
2024/01/26 12:26:29;;;;;;;0.00;0.00;;;11.10;74.70;;;;;;5031323;28;20205;-41
2024/01/26 12:28:57;;;;;;;0.00;0.00;;;11.10;74.10;;;;;;5034591;28;20224;-41
2024/01/26 12:31:28;;;;;;;0.00;0.00;;;11.10;73.80;;;;;;5034353;28;20209;-40
2024/01/26 12:33:55;;;;;;;0.00;0.00;;;11.10;74.40;;;;;;5015897;28;20212;-39
2024/01/26 12:36:31;;;;;;;0.00;0.00;;;11.10;74.40;;;;;;5034246;28;20235;-42
2024/01/26 12:39:02;;;;;;;0.00;0.00;;;11.10;74.70;;;;;;5036302;28;20675;-40
2024/01/26 12:41:35;;;;;;;0.00;0.00;;;11.10;74.00;;;;;;5030354;28;20212;-38
2024/01/26 12:44:07;;;;;;;0.00;0.00;;;11.10;72.90;;;;;;5029249;28;20603;-40
2024/01/26 12:46:34;;;;;;;0.00;0.00;;;11.10;74.80;;;;;;5026994;28;20578;-39
2024/01/26 12:49:04;;;;;;;0.00;0.00;;;11.00;73.20;;;;;;5027759;28;20201;-38
2024/01/26 12:51:31;;;;;;;0.00;0.00;;;11.00;73.80;;;;;;5036278;28;20215;-38
2024/01/26 12:54:00;;;;;;;0.00;0.00;;;11.00;72.80;;;;;;5029486;28;20205;-38
2024/01/26 12:56:30;;;;;;;0.00;0.00;;;11.00;72.60;;;;;;5031099;28;20228;-39
2024/01/26 12:59:02;;;;;;;0.00;0.00;;;11.00;71.70;;;;;;5029244;28;20288;-37
2024/01/26 13:01:32;;;;;;;0.00;0.00;;;10.90;72.40;;;;;;5031927;28;20284;-40